sensor_id;sensor_type;location;lat;lon;timestamp;P1;durP1;ratioP1;P2;durP2;ratioP2
68375;SDS011;55318;52.068;5.188;2023-11-18T00:01:19;31.2;;;15.6;;
68375;SDS011;55318;52.068;5.188;2023-11-18T00:02:55;30.5;;;15.9;;
68375;SDS011;55318;52.068;5.188;2023-11-18T00:04:31;29.8;;;15.6;;
68375;SDS011;55318;52.068;5.188;2023-11-18T00:07:43;29.3;;;16.5;;
68375;SDS011;55318;52.068;5.188;2023-11-18T00:09:20;28.9;;;15.6;;
68375;SDS011;55318;52.068;5.188;2023-11-18T00:10:56;28.5;;;14.9;;
68375;SDS011;55318;52.068;5.188;2023-11-18T00:12:32;28.5;;;15.4;;
68375;SDS011;55318;52.068;5.188;2023-11-18T00:15:44;28.9;;;14.8;;
68375;SDS011;55318;52.068;5.188;2023-11-18T00:17:20;30.4;;;15.2;;
68375;SDS011;55318;52.068;5.188;2023-11-18T00:18:56;29.6;;;16.3;;
68375;SDS011;55318;52.068;5.188;2023-11-18T00:22:09;27.9;;;15.4;;
68375;SDS011;55318;52.068;5.188;2023-11-18T00:23:45;31.7;;;16.8;;
68375;SDS011;55318;52.068;5.188;2023-11-18T00:25:21;30.8;;;16.7;;
68375;SDS011;55318;52.068;5.188;2023-11-18T00:28:33;26.3;;;14.7;;
68375;SDS011;55318;52.068;5.188;2023-11-18T00:30:09;28.0;;;14.5;;
68375;SDS011;55318;52.068;5.188;2023-11-18T00:31:46;26.7;;;15.0;;
68375;SDS011;55318;52.068;5.188;2023-11-18T00:34:59;29.3;;;15.6;;
68375;SDS011;55318;52.068;5.188;2023-11-18T00:36:35;29.4;;;15.8;;
68375;SDS011;55318;52.068;5.188;2023-11-18T00:38:11;28.4;;;15.3;;
68375;SDS011;55318;52.068;5.188;2023-11-18T00:39:47;25.1;;;14.1;;
68375;SDS011;55318;52.068;5.188;2023-11-18T00:42:59;27.2;;;14.8;;
68375;SDS011;55318;52.068;5.188;2023-11-18T00:44:35;28.8;;;16.0;;
68375;SDS011;55318;52.068;5.188;2023-11-18T00:46:11;24.6;;;13.6;;
68375;SDS011;55318;52.068;5.188;2023-11-18T00:49:24;27.4;;;15.3;;
68375;SDS011;55318;52.068;5.188;2023-11-18T00:51:00;26.3;;;15.2;;
68375;SDS011;55318;52.068;5.188;2023-11-18T00:52:36;24.7;;;14.3;;
68375;SDS011;55318;52.068;5.188;2023-11-18T00:55:48;33.4;;;15.7;;
68375;SDS011;55318;52.068;5.188;2023-11-18T00:57:24;29.1;;;15.4;;
68375;SDS011;55318;52.068;5.188;2023-11-18T00:59:00;27.8;;;15.9;;
68375;SDS011;55318;52.068;5.188;2023-11-18T01:00:36;22.3;;;13.1;;
68375;SDS011;55318;52.068;5.188;2023-11-18T01:03:49;24.8;;;13.4;;
68375;SDS011;55318;52.068;5.188;2023-11-18T01:05:25;25.4;;;14.3;;
68375;SDS011;55318;52.068;5.188;2023-11-18T01:07:01;27.0;;;15.2;;
68375;SDS011;55318;52.068;5.188;2023-11-18T01:10:13;24.9;;;14.2;;
68375;SDS011;55318;52.068;5.188;2023-11-18T01:11:49;23.8;;;12.9;;
68375;SDS011;55318;52.068;5.188;2023-11-18T01:13:25;20.11;;;11.3;;
68375;SDS011;55318;52.068;5.188;2023-11-18T01:16:38;25.5;;;13.3;;
68375;SDS011;55318;52.068;5.188;2023-11-18T01:18:15;23.7;;;11.4;;
68375;SDS011;55318;52.068;5.188;2023-11-18T01:19:51;23.7;;;11.4;;
68375;SDS011;55318;52.068;5.188;2023-11-18T01:23:03;26.9;;;14.3;;
68375;SDS011;55318;52.068;5.188;2023-11-18T01:24:39;25.4;;;15.3;;
68375;SDS011;55318;52.068;5.188;2023-11-18T01:26:16;23.0;;;13.5;;
68375;SDS011;55318;52.068;5.188;2023-11-18T01:27:52;27.2;;;15.2;;
68375;SDS011;55318;52.068;5.188;2023-11-18T01:31:05;24.0;;;13.5;;
68375;SDS011;55318;52.068;5.188;2023-11-18T01:32:41;24.6;;;13.4;;
68375;SDS011;55318;52.068;5.188;2023-11-18T01:34:17;21.1;;;12.9;;
68375;SDS011;55318;52.068;5.188;2023-11-18T01:37:29;27.9;;;14.5;;
68375;SDS011;55318;52.068;5.188;2023-11-18T01:39:05;27.5;;;13.8;;
68375;SDS011;55318;52.068;5.188;2023-11-18T01:40:41;21.9;;;13.6;;
68375;SDS011;55318;52.068;5.188;2023-11-18T01:43:53;24.3;;;12.9;;
68375;SDS011;55318;52.068;5.188;2023-11-18T01:45:30;23.1;;;13.7;;
68375;SDS011;55318;52.068;5.188;2023-11-18T01:47:06;25.6;;;14.1;;
68375;SDS011;55318;52.068;5.188;2023-11-18T01:48:43;25.5;;;13.8;;
68375;SDS011;55318;52.068;5.188;2023-11-18T01:51:55;26.5;;;14.5;;
68375;SDS011;55318;52.068;5.188;2023-11-18T01:53:31;26.9;;;15.0;;
68375;SDS011;55318;52.068;5.188;2023-11-18T01:55:09;23.5;;;13.5;;
68375;SDS011;55318;52.068;5.188;2023-11-18T01:58:23;23.5;;;13.5;;
68375;SDS011;55318;52.068;5.188;2023-11-18T02:00:00;21.2;;;13.2;;
68375;SDS011;55318;52.068;5.188;2023-11-18T02:01:37;24.0;;;13.4;;
68375;SDS011;55318;52.068;5.188;2023-11-18T02:04:50;25.0;;;13.6;;
68375;SDS011;55318;52.068;5.188;2023-11-18T02:06:26;27.8;;;14.0;;
68375;SDS011;55318;52.068;5.188;2023-11-18T02:08:04;23.6;;;14.5;;
68375;SDS011;55318;52.068;5.188;2023-11-18T02:09:41;21.4;;;12.7;;
68375;SDS011;55318;52.068;5.188;2023-11-18T02:13:06;25.4;;;12.5;;
68375;SDS011;55318;52.068;5.188;2023-11-18T02:14:49;25.8;;;13.8;;
68375;SDS011;55318;52.068;5.188;2023-11-18T02:16:27;24.3;;;13.4;;
68375;SDS011;55318;52.068;5.188;2023-11-18T02:18:04;22.7;;;12.8;;
68375;SDS011;55318;52.068;5.188;2023-11-18T02:21:19;24.2;;;13.6;;
68375;SDS011;55318;52.068;5.188;2023-11-18T02:22:56;24.0;;;13.4;;
68375;SDS011;55318;52.068;5.188;2023-11-18T02:24:33;25.5;;;13.2;;
68375;SDS011;55318;52.068;5.188;2023-11-18T02:27:46;24.5;;;15.6;;
68375;SDS011;55318;52.068;5.188;2023-11-18T02:29:22;28.0;;;15.6;;
68375;SDS011;55318;52.068;5.188;2023-11-18T02:31:09;22.8;;;13.4;;
68375;SDS011;55318;52.068;5.188;2023-11-18T02:32:52;24.6;;;14.0;;
68375;SDS011;55318;52.068;5.188;2023-11-18T02:36:18;23.5;;;13.2;;
68375;SDS011;55318;52.068;5.188;2023-11-18T02:38:04;22.8;;;13.2;;
68375;SDS011;55318;52.068;5.188;2023-11-18T02:39:42;25.5;;;14.0;;
68375;SDS011;55318;52.068;5.188;2023-11-18T02:41:21;28.1;;;13.4;;
68375;SDS011;55318;52.068;5.188;2023-11-18T02:44:36;22.9;;;14.1;;
68375;SDS011;55318;52.068;5.188;2023-11-18T02:46:13;21.6;;;11.7;;
68375;SDS011;55318;52.068;5.188;2023-11-18T02:47:49;22.8;;;13.3;;
68375;SDS011;55318;52.068;5.188;2023-11-18T02:49:25;23.3;;;13.0;;
68375;SDS011;55318;52.068;5.188;2023-11-18T02:52:37;25.7;;;12.4;;
68375;SDS011;55318;52.068;5.188;2023-11-18T02:54:14;20.2;;;12.7;;
68375;SDS011;55318;52.068;5.188;2023-11-18T02:55:50;20.8;;;11.6;;
68375;SDS011;55318;52.068;5.188;2023-11-18T02:59:02;19.11;;;11.9;;
68375;SDS011;55318;52.068;5.188;2023-11-18T03:00:38;22.8;;;12.6;;
68375;SDS011;55318;52.068;5.188;2023-11-18T03:02:14;19.8;;;12.0;;
68375;SDS011;55318;52.068;5.188;2023-11-18T03:05:26;19.91;;;11.9;;
68375;SDS011;55318;52.068;5.188;2023-11-18T03:07:02;24.4;;;13.3;;
68375;SDS011;55318;52.068;5.188;2023-11-18T03:08:38;21.9;;;13.4;;
68375;SDS011;55318;52.068;5.188;2023-11-18T03:11:51;22.8;;;13.5;;
68375;SDS011;55318;52.068;5.188;2023-11-18T03:13:27;20.7;;;12.1;;
68375;SDS011;55318;52.068;5.188;2023-11-18T03:15:03;18.8;;;12.0;;
68375;SDS011;55318;52.068;5.188;2023-11-18T03:16:40;22.9;;;12.1;;
68375;SDS011;55318;52.068;5.188;2023-11-18T03:19:52;20.6;;;12.6;;
68375;SDS011;55318;52.068;5.188;2023-11-18T03:21:28;18.8;;;11.2;;
68375;SDS011;55318;52.068;5.188;2023-11-18T03:23:04;24.1;;;13.3;;
68375;SDS011;55318;52.068;5.188;2023-11-18T03:26:17;26.0;;;14.0;;
68375;SDS011;55318;52.068;5.188;2023-11-18T03:27:53;23.3;;;13.3;;
68375;SDS011;55318;52.068;5.188;2023-11-18T03:29:29;22.3;;;12.3;;
68375;SDS011;55318;52.068;5.188;2023-11-18T03:32:42;22.8;;;12.6;;
68375;SDS011;55318;52.068;5.188;2023-11-18T03:34:19;24.3;;;14.4;;
68375;SDS011;55318;52.068;5.188;2023-11-18T03:35:55;21.5;;;13.1;;
68375;SDS011;55318;52.068;5.188;2023-11-18T03:37:31;22.2;;;12.2;;
68375;SDS011;55318;52.068;5.188;2023-11-18T03:40:45;20.2;;;13.0;;
68375;SDS011;55318;52.068;5.188;2023-11-18T03:42:21;25.0;;;14.2;;
68375;SDS011;55318;52.068;5.188;2023-11-18T03:43:57;22.0;;;12.8;;
68375;SDS011;55318;52.068;5.188;2023-11-18T03:47:09;26.4;;;12.5;;
68375;SDS011;55318;52.068;5.188;2023-11-18T03:48:45;22.7;;;12.9;;
68375;SDS011;55318;52.068;5.188;2023-11-18T03:50:21;21.8;;;11.4;;
68375;SDS011;55318;52.068;5.188;2023-11-18T03:53:33;22.1;;;12.4;;
68375;SDS011;55318;52.068;5.188;2023-11-18T03:55:10;24.6;;;12.9;;
68375;SDS011;55318;52.068;5.188;2023-11-18T03:56:47;24.1;;;13.5;;
68375;SDS011;55318;52.068;5.188;2023-11-18T03:59:59;23.5;;;12.4;;
68375;SDS011;55318;52.068;5.188;2023-11-18T04:01:35;21.9;;;13.2;;
68375;SDS011;55318;52.068;5.188;2023-11-18T04:03:11;20.11;;;11.7;;
68375;SDS011;55318;52.068;5.188;2023-11-18T04:04:47;24.2;;;13.9;;
68375;SDS011;55318;52.068;5.188;2023-11-18T04:09:36;20.0;;;11.7;;
68375;SDS011;55318;52.068;5.188;2023-11-18T04:11:12;22.3;;;12.4;;
68375;SDS011;55318;52.068;5.188;2023-11-18T04:14:24;21.9;;;13.3;;
68375;SDS011;55318;52.068;5.188;2023-11-18T04:16:00;22.7;;;13.2;;
68375;SDS011;55318;52.068;5.188;2023-11-18T04:17:36;24.5;;;13.0;;
68375;SDS011;55318;52.068;5.188;2023-11-18T04:20:48;27.6;;;13.0;;
68375;SDS011;55318;52.068;5.188;2023-11-18T04:22:24;23.0;;;12.3;;
68375;SDS011;55318;52.068;5.188;2023-11-18T04:24:00;23.5;;;14.2;;
68375;SDS011;55318;52.068;5.188;2023-11-18T04:27:13;23.8;;;14.2;;
68375;SDS011;55318;52.068;5.188;2023-11-18T04:28:49;25.2;;;14.6;;
68375;SDS011;55318;52.068;5.188;2023-11-18T04:30:25;22.0;;;12.4;;
68375;SDS011;55318;52.068;5.188;2023-11-18T04:32:01;18.41;;;11.5;;
68375;SDS011;55318;52.068;5.188;2023-11-18T04:35:13;20.11;;;11.2;;
68375;SDS011;55318;52.068;5.188;2023-11-18T04:36:49;21.8;;;12.2;;
68375;SDS011;55318;52.068;5.188;2023-11-18T04:38:26;25.7;;;13.6;;
68375;SDS011;55318;52.068;5.188;2023-11-18T04:41:42;19.5;;;12.7;;
68375;SDS011;55318;52.068;5.188;2023-11-18T04:43:18;24.8;;;14.7;;
68375;SDS011;55318;52.068;5.188;2023-11-18T04:44:54;20.5;;;12.4;;
68375;SDS011;55318;52.068;5.188;2023-11-18T04:48:06;19.2;;;12.5;;
68375;SDS011;55318;52.068;5.188;2023-11-18T04:49:42;21.7;;;13.5;;
68375;SDS011;55318;52.068;5.188;2023-11-18T04:51:18;22.3;;;12.6;;
68375;SDS011;55318;52.068;5.188;2023-11-18T04:52:54;21.2;;;12.3;;
68375;SDS011;55318;52.068;5.188;2023-11-18T04:56:07;22.9;;;12.9;;
68375;SDS011;55318;52.068;5.188;2023-11-18T04:57:43;24.1;;;13.4;;
68375;SDS011;55318;52.068;5.188;2023-11-18T04:59:19;19.41;;;11.9;;
68375;SDS011;55318;52.068;5.188;2023-11-18T05:02:31;23.6;;;13.6;;
68375;SDS011;55318;52.068;5.188;2023-11-18T05:04:07;21.6;;;13.3;;
68375;SDS011;55318;52.068;5.188;2023-11-18T05:05:43;22.2;;;12.8;;
68375;SDS011;55318;52.068;5.188;2023-11-18T05:08:56;19.3;;;12.0;;
68375;SDS011;55318;52.068;5.188;2023-11-18T05:10:32;25.0;;;13.3;;
68375;SDS011;55318;52.068;5.188;2023-11-18T05:12:08;23.2;;;12.9;;
68375;SDS011;55318;52.068;5.188;2023-11-18T05:13:44;20.0;;;12.8;;
68375;SDS011;55318;52.068;5.188;2023-11-18T05:16:57;24.7;;;13.2;;
68375;SDS011;55318;52.068;5.188;2023-11-18T05:18:33;24.3;;;14.1;;
68375;SDS011;55318;52.068;5.188;2023-11-18T05:20:09;27.3;;;14.1;;
68375;SDS011;55318;52.068;5.188;2023-11-18T05:24:58;25.0;;;13.1;;
68375;SDS011;55318;52.068;5.188;2023-11-18T05:26:34;24.4;;;15.0;;
68375;SDS011;55318;52.068;5.188;2023-11-18T05:29:46;23.3;;;13.9;;
68375;SDS011;55318;52.068;5.188;2023-11-18T05:31:22;21.0;;;13.0;;
68375;SDS011;55318;52.068;5.188;2023-11-18T05:32:58;20.9;;;12.2;;
68375;SDS011;55318;52.068;5.188;2023-11-18T05:36:11;21.8;;;12.3;;
68375;SDS011;55318;52.068;5.188;2023-11-18T05:37:47;23.7;;;13.2;;
68375;SDS011;55318;52.068;5.188;2023-11-18T05:39:23;21.1;;;12.5;;
68375;SDS011;55318;52.068;5.188;2023-11-18T05:40:59;25.4;;;14.0;;
68375;SDS011;55318;52.068;5.188;2023-11-18T05:44:12;25.4;;;14.0;;
68375;SDS011;55318;52.068;5.188;2023-11-18T05:45:48;17.8;;;11.0;;
68375;SDS011;55318;52.068;5.188;2023-11-18T05:47:24;22.1;;;12.7;;
68375;SDS011;55318;52.068;5.188;2023-11-18T05:50:38;22.3;;;12.4;;
68375;SDS011;55318;52.068;5.188;2023-11-18T05:52:14;21.1;;;11.7;;
68375;SDS011;55318;52.068;5.188;2023-11-18T05:53:50;26.2;;;13.4;;
68375;SDS011;55318;52.068;5.188;2023-11-18T05:57:03;24.2;;;14.6;;
68375;SDS011;55318;52.068;5.188;2023-11-18T05:58:39;19.5;;;11.7;;
68375;SDS011;55318;52.068;5.188;2023-11-18T06:00:16;23.2;;;12.7;;
68375;SDS011;55318;52.068;5.188;2023-11-18T06:01:52;21.5;;;11.8;;
68375;SDS011;55318;52.068;5.188;2023-11-18T06:05:05;23.9;;;12.2;;
68375;SDS011;55318;52.068;5.188;2023-11-18T06:06:42;22.4;;;12.0;;
68375;SDS011;55318;52.068;5.188;2023-11-18T06:08:18;21.5;;;11.8;;
68375;SDS011;55318;52.068;5.188;2023-11-18T06:11:30;22.9;;;13.8;;
68375;SDS011;55318;52.068;5.188;2023-11-18T06:13:06;22.3;;;11.7;;
68375;SDS011;55318;52.068;5.188;2023-11-18T06:14:42;20.0;;;12.3;;
68375;SDS011;55318;52.068;5.188;2023-11-18T06:17:57;22.3;;;12.7;;
68375;SDS011;55318;52.068;5.188;2023-11-18T06:19:33;23.5;;;12.7;;
68375;SDS011;55318;52.068;5.188;2023-11-18T06:21:10;21.3;;;11.6;;
68375;SDS011;55318;52.068;5.188;2023-11-18T06:22:47;19.5;;;11.9;;
68375;SDS011;55318;52.068;5.188;2023-11-18T06:25:59;21.7;;;12.7;;
68375;SDS011;55318;52.068;5.188;2023-11-18T06:27:35;23.0;;;13.1;;
68375;SDS011;55318;52.068;5.188;2023-11-18T06:29:11;23.0;;;12.7;;
68375;SDS011;55318;52.068;5.188;2023-11-18T06:32:24;27.2;;;14.5;;
68375;SDS011;55318;52.068;5.188;2023-11-18T06:34:00;19.91;;;10.4;;
68375;SDS011;55318;52.068;5.188;2023-11-18T06:35:37;26.0;;;12.7;;
68375;SDS011;55318;52.068;5.188;2023-11-18T06:38:49;20.9;;;11.6;;
68375;SDS011;55318;52.068;5.188;2023-11-18T06:40:26;19.91;;;10.5;;
68375;SDS011;55318;52.068;5.188;2023-11-18T06:42:02;19.3;;;11.5;;
68375;SDS011;55318;52.068;5.188;2023-11-18T06:45:15;18.8;;;12.6;;
68375;SDS011;55318;52.068;5.188;2023-11-18T06:46:51;21.9;;;11.2;;
68375;SDS011;55318;52.068;5.188;2023-11-18T06:48:28;19.0;;;11.0;;
68375;SDS011;55318;52.068;5.188;2023-11-18T06:50:04;19.11;;;10.3;;
68375;SDS011;55318;52.068;5.188;2023-11-18T06:53:18;18.11;;;9.6;;
68375;SDS011;55318;52.068;5.188;2023-11-18T06:54:54;21.3;;;11.8;;
68375;SDS011;55318;52.068;5.188;2023-11-18T06:56:30;16.3;;;9.21;;
68375;SDS011;55318;52.068;5.188;2023-11-18T06:59:42;18.0;;;10.21;;
68375;SDS011;55318;52.068;5.188;2023-11-18T07:01:19;18.91;;;10.3;;
68375;SDS011;55318;52.068;5.188;2023-11-18T07:02:56;20.0;;;10.8;;
68375;SDS011;55318;52.068;5.188;2023-11-18T07:06:08;18.2;;;10.5;;
68375;SDS011;55318;52.068;5.188;2023-11-18T07:07:44;15.7;;;9.5;;
68375;SDS011;55318;52.068;5.188;2023-11-18T07:09:20;19.8;;;10.0;;
68375;SDS011;55318;52.068;5.188;2023-11-18T07:10:56;20.8;;;11.4;;
68375;SDS011;55318;52.068;5.188;2023-11-18T07:14:08;18.8;;;9.5;;
68375;SDS011;55318;52.068;5.188;2023-11-18T07:15:46;17.61;;;11.0;;
68375;SDS011;55318;52.068;5.188;2023-11-18T07:17:22;17.61;;;9.71;;
68375;SDS011;55318;52.068;5.188;2023-11-18T07:20:34;16.3;;;10.0;;
68375;SDS011;55318;52.068;5.188;2023-11-18T07:22:10;20.5;;;9.9;;
68375;SDS011;55318;52.068;5.188;2023-11-18T07:23:46;21.2;;;10.4;;
68375;SDS011;55318;52.068;5.188;2023-11-18T07:26:58;19.5;;;11.8;;
68375;SDS011;55318;52.068;5.188;2023-11-18T07:28:34;23.7;;;11.6;;
68375;SDS011;55318;52.068;5.188;2023-11-18T07:30:11;18.11;;;9.71;;
68375;SDS011;55318;52.068;5.188;2023-11-18T07:33:23;20.5;;;10.1;;
68375;SDS011;55318;52.068;5.188;2023-11-18T07:34:59;20.9;;;9.81;;
68375;SDS011;55318;52.068;5.188;2023-11-18T07:36:35;20.8;;;10.0;;
68375;SDS011;55318;52.068;5.188;2023-11-18T07:38:11;16.2;;;8.71;;
68375;SDS011;55318;52.068;5.188;2023-11-18T07:41:24;17.61;;;9.9;;
68375;SDS011;55318;52.068;5.188;2023-11-18T07:43:00;21.9;;;10.1;;
68375;SDS011;55318;52.068;5.188;2023-11-18T07:44:36;19.3;;;9.6;;
68375;SDS011;55318;52.068;5.188;2023-11-18T07:47:49;17.91;;;9.21;;
68375;SDS011;55318;52.068;5.188;2023-11-18T07:49:25;19.41;;;9.6;;
68375;SDS011;55318;52.068;5.188;2023-11-18T07:51:01;16.11;;;9.5;;
68375;SDS011;55318;52.068;5.188;2023-11-18T07:54:14;16.7;;;9.0;;
68375;SDS011;55318;52.068;5.188;2023-11-18T07:55:50;20.3;;;9.5;;
68375;SDS011;55318;52.068;5.188;2023-11-18T07:57:26;18.8;;;9.71;;
68375;SDS011;55318;52.068;5.188;2023-11-18T07:59:02;18.91;;;9.6;;
68375;SDS011;55318;52.068;5.188;2023-11-18T08:02:15;23.8;;;9.1;;
68375;SDS011;55318;52.068;5.188;2023-11-18T08:03:52;18.5;;;9.6;;
68375;SDS011;55318;52.068;5.188;2023-11-18T08:05:28;15.4;;;8.81;;
68375;SDS011;55318;52.068;5.188;2023-11-18T08:08:40;16.4;;;8.2;;
68375;SDS011;55318;52.068;5.188;2023-11-18T08:10:16;17.5;;;9.21;;
68375;SDS011;55318;52.068;5.188;2023-11-18T08:11:52;15.8;;;8.81;;
68375;SDS011;55318;52.068;5.188;2023-11-18T08:15:05;20.11;;;9.0;;
68375;SDS011;55318;52.068;5.188;2023-11-18T08:16:41;15.8;;;8.6;;
68375;SDS011;55318;52.068;5.188;2023-11-18T08:18:17;14.1;;;8.4;;
68375;SDS011;55318;52.068;5.188;2023-11-18T08:21:30;15.0;;;8.31;;
68375;SDS011;55318;52.068;5.188;2023-11-18T08:23:06;17.11;;;9.6;;
68375;SDS011;55318;52.068;5.188;2023-11-18T08:24:42;15.7;;;8.9;;
68375;SDS011;55318;52.068;5.188;2023-11-18T08:26:18;17.3;;;8.31;;
68375;SDS011;55318;52.068;5.188;2023-11-18T08:29:32;14.0;;;8.71;;
68375;SDS011;55318;52.068;5.188;2023-11-18T08:31:08;15.1;;;8.9;;
68375;SDS011;55318;52.068;5.188;2023-11-18T08:32:45;14.2;;;8.0;;
68375;SDS011;55318;52.068;5.188;2023-11-18T08:35:57;18.3;;;9.21;;
68375;SDS011;55318;52.068;5.188;2023-11-18T08:37:33;14.1;;;8.6;;
68375;SDS011;55318;52.068;5.188;2023-11-18T08:39:10;15.0;;;7.2;;
68375;SDS011;55318;52.068;5.188;2023-11-18T08:42:23;13.3;;;8.0;;
68375;SDS011;55318;52.068;5.188;2023-11-18T08:43:59;23.2;;;8.4;;
68375;SDS011;55318;52.068;5.188;2023-11-18T08:45:35;16.9;;;8.9;;
68375;SDS011;55318;52.068;5.188;2023-11-18T08:47:11;12.6;;;7.4;;
68375;SDS011;55318;52.068;5.188;2023-11-18T08:50:23;14.1;;;7.3;;
68375;SDS011;55318;52.068;5.188;2023-11-18T08:52:01;14.3;;;7.0;;
68375;SDS011;55318;52.068;5.188;2023-11-18T08:53:38;13.1;;;7.1;;
68375;SDS011;55318;52.068;5.188;2023-11-18T08:56:51;15.1;;;7.3;;
68375;SDS011;55318;52.068;5.188;2023-11-18T08:58:27;13.5;;;7.3;;
68375;SDS011;55318;52.068;5.188;2023-11-18T09:03:18;13.7;;;7.0;;
68375;SDS011;55318;52.068;5.188;2023-11-18T09:04:56;11.6;;;7.7;;
68375;SDS011;55318;52.068;5.188;2023-11-18T09:06:32;12.0;;;6.5;;
68375;SDS011;55318;52.068;5.188;2023-11-18T09:08:08;9.81;;;6.6;;
68375;SDS011;55318;52.068;5.188;2023-11-18T09:11:21;11.5;;;5.7;;
68375;SDS011;55318;52.068;5.188;2023-11-18T09:12:58;11.3;;;6.1;;
68375;SDS011;55318;52.068;5.188;2023-11-18T09:14:34;10.7;;;5.9;;
68375;SDS011;55318;52.068;5.188;2023-11-18T09:17:48;18.11;;;7.7;;
68375;SDS011;55318;52.068;5.188;2023-11-18T09:19:24;10.7;;;6.2;;
68375;SDS011;55318;52.068;5.188;2023-11-18T09:21:00;10.0;;;5.9;;
68375;SDS011;55318;52.068;5.188;2023-11-18T09:24:12;13.5;;;6.1;;
68375;SDS011;55318;52.068;5.188;2023-11-18T09:25:48;14.1;;;6.5;;
68375;SDS011;55318;52.068;5.188;2023-11-18T09:27:25;12.3;;;5.5;;
68375;SDS011;55318;52.068;5.188;2023-11-18T09:29:01;11.3;;;6.9;;
68375;SDS011;55318;52.068;5.188;2023-11-18T09:32:13;11.1;;;6.3;;
68375;SDS011;55318;52.068;5.188;2023-11-18T09:33:49;11.6;;;5.5;;
68375;SDS011;55318;52.068;5.188;2023-11-18T09:35:26;11.0;;;5.3;;
68375;SDS011;55318;52.068;5.188;2023-11-18T09:38:39;9.81;;;5.4;;
68375;SDS011;55318;52.068;5.188;2023-11-18T09:40:16;10.0;;;4.61;;
68375;SDS011;55318;52.068;5.188;2023-11-18T09:41:52;10.6;;;5.4;;
68375;SDS011;55318;52.068;5.188;2023-11-18T09:45:05;10.8;;;5.8;;
68375;SDS011;55318;52.068;5.188;2023-11-18T09:46:43;11.9;;;5.11;;
68375;SDS011;55318;52.068;5.188;2023-11-18T09:48:25;12.1;;;5.6;;
68375;SDS011;55318;52.068;5.188;2023-11-18T09:50:02;10.7;;;5.3;;
68375;SDS011;55318;52.068;5.188;2023-11-18T09:53:21;11.4;;;5.7;;
68375;SDS011;55318;52.068;5.188;2023-11-18T09:54:59;9.9;;;5.3;;
68375;SDS011;55318;52.068;5.188;2023-11-18T09:56:40;12.3;;;4.8;;
68375;SDS011;55318;52.068;5.188;2023-11-18T09:58:25;10.1;;;4.61;;
68375;SDS011;55318;52.068;5.188;2023-11-18T10:01:53;8.31;;;5.0;;
68375;SDS011;55318;52.068;5.188;2023-11-18T10:03:33;11.0;;;5.5;;
68375;SDS011;55318;52.068;5.188;2023-11-18T10:05:09;8.81;;;4.41;;
68375;SDS011;55318;52.068;5.188;2023-11-18T10:06:46;9.4;;;4.2;;
68375;SDS011;55318;52.068;5.188;2023-11-18T10:10:01;7.7;;;4.7;;
68375;SDS011;55318;52.068;5.188;2023-11-18T10:11:37;8.31;;;4.1;;
68375;SDS011;55318;52.068;5.188;2023-11-18T10:13:13;9.6;;;4.8;;
68375;SDS011;55318;52.068;5.188;2023-11-18T10:16:27;8.81;;;4.2;;
68375;SDS011;55318;52.068;5.188;2023-11-18T10:18:03;16.11;;;5.0;;
68375;SDS011;55318;52.068;5.188;2023-11-18T10:19:51;12.7;;;5.3;;
68375;SDS011;55318;52.068;5.188;2023-11-18T10:21:34;11.6;;;4.91;;
68375;SDS011;55318;52.068;5.188;2023-11-18T10:24:48;7.3;;;4.1;;
68375;SDS011;55318;52.068;5.188;2023-11-18T10:26:24;9.6;;;4.5;;
68375;SDS011;55318;52.068;5.188;2023-11-18T10:28:01;12.2;;;4.91;;
68375;SDS011;55318;52.068;5.188;2023-11-18T10:31:13;12.4;;;4.0;;
68375;SDS011;55318;52.068;5.188;2023-11-18T10:32:56;8.5;;;4.5;;
68375;SDS011;55318;52.068;5.188;2023-11-18T10:34:32;8.4;;;4.61;;
68375;SDS011;55318;52.068;5.188;2023-11-18T10:36:16;11.6;;;4.7;;
68375;SDS011;55318;52.068;5.188;2023-11-18T10:39:31;11.5;;;4.3;;
68375;SDS011;55318;52.068;5.188;2023-11-18T10:41:08;7.5;;;3.8;;
68375;SDS011;55318;52.068;5.188;2023-11-18T10:42:44;14.4;;;4.61;;
68375;SDS011;55318;52.068;5.188;2023-11-18T10:44:21;8.4;;;5.0;;
68375;SDS011;55318;52.068;5.188;2023-11-18T10:47:43;11.9;;;4.61;;
68375;SDS011;55318;52.068;5.188;2023-11-18T10:49:20;7.4;;;3.8;;
68375;SDS011;55318;52.068;5.188;2023-11-18T10:50:56;8.4;;;3.9;;
68375;SDS011;55318;52.068;5.188;2023-11-18T10:54:08;7.0;;;3.5;;
68375;SDS011;55318;52.068;5.188;2023-11-18T10:55:45;5.4;;;3.2;;
68375;SDS011;55318;52.068;5.188;2023-11-18T10:57:21;9.21;;;3.8;;
68375;SDS011;55318;52.068;5.188;2023-11-18T10:58:58;6.4;;;3.0;;
68375;SDS011;55318;52.068;5.188;2023-11-18T11:02:23;9.31;;;3.9;;
68375;SDS011;55318;52.068;5.188;2023-11-18T11:03:59;8.0;;;3.6;;
68375;SDS011;55318;52.068;5.188;2023-11-18T11:05:36;6.4;;;3.0;;
68375;SDS011;55318;52.068;5.188;2023-11-18T11:08:52;6.1;;;3.1;;
68375;SDS011;55318;52.068;5.188;2023-11-18T11:10:28;7.6;;;3.2;;
68375;SDS011;55318;52.068;5.188;2023-11-18T11:12:07;5.7;;;3.5;;
68375;SDS011;55318;52.068;5.188;2023-11-18T11:13:47;10.1;;;4.1;;
68375;SDS011;55318;52.068;5.188;2023-11-18T11:17:06;5.6;;;3.3;;
68375;SDS011;55318;52.068;5.188;2023-11-18T11:18:44;6.8;;;2.5;;
68375;SDS011;55318;52.068;5.188;2023-11-18T11:20:24;5.8;;;3.2;;
68375;SDS011;55318;52.068;5.188;2023-11-18T11:22:03;6.6;;;3.3;;
68375;SDS011;55318;52.068;5.188;2023-11-18T11:25:27;8.71;;;3.7;;
68375;SDS011;55318;52.068;5.188;2023-11-18T11:27:13;7.5;;;3.5;;
68375;SDS011;55318;52.068;5.188;2023-11-18T11:29:00;4.5;;;2.9;;
68375;SDS011;55318;52.068;5.188;2023-11-18T11:30:44;4.7;;;2.5;;
68375;SDS011;55318;52.068;5.188;2023-11-18T11:34:04;5.6;;;2.7;;
68375;SDS011;55318;52.068;5.188;2023-11-18T11:35:43;6.8;;;2.5;;
68375;SDS011;55318;52.068;5.188;2023-11-18T11:37:25;10.1;;;3.1;;
68375;SDS011;55318;52.068;5.188;2023-11-18T11:39:01;4.1;;;2.7;;
68375;SDS011;55318;52.068;5.188;2023-11-18T11:42:14;7.3;;;3.3;;
68375;SDS011;55318;52.068;5.188;2023-11-18T11:43:54;8.81;;;3.4;;
68375;SDS011;55318;52.068;5.188;2023-11-18T11:45:31;4.1;;;2.7;;
68375;SDS011;55318;52.068;5.188;2023-11-18T11:47:07;6.0;;;3.0;;
68375;SDS011;55318;52.068;5.188;2023-11-18T11:50:21;6.2;;;3.4;;
68375;SDS011;55318;52.068;5.188;2023-11-18T11:52:09;6.2;;;2.8;;
68375;SDS011;55318;52.068;5.188;2023-11-18T11:53:52;7.1;;;3.3;;
68375;SDS011;55318;52.068;5.188;2023-11-18T11:55:35;9.9;;;3.6;;
68375;SDS011;55318;52.068;5.188;2023-11-18T11:58:53;6.7;;;3.1;;
68375;SDS011;55318;52.068;5.188;2023-11-18T12:00:33;7.3;;;3.1;;
68375;SDS011;55318;52.068;5.188;2023-11-18T12:02:09;7.4;;;3.5;;
68375;SDS011;55318;52.068;5.188;2023-11-18T12:05:23;8.31;;;3.3;;
68375;SDS011;55318;52.068;5.188;2023-11-18T12:07:00;4.1;;;2.6;;
68375;SDS011;55318;52.068;5.188;2023-11-18T12:08:36;4.61;;;2.4;;
68375;SDS011;55318;52.068;5.188;2023-11-18T12:10:12;6.9;;;2.9;;
68375;SDS011;55318;52.068;5.188;2023-11-18T12:13:26;8.5;;;2.9;;
68375;SDS011;55318;52.068;5.188;2023-11-18T12:15:02;4.1;;;2.8;;
68375;SDS011;55318;52.068;5.188;2023-11-18T12:16:57;6.3;;;2.4;;
68375;SDS011;55318;52.068;5.188;2023-11-18T12:18:36;5.11;;;3.0;;
68375;SDS011;55318;52.068;5.188;2023-11-18T12:22:13;6.1;;;2.7;;
68375;SDS011;55318;52.068;5.188;2023-11-18T12:24:14;5.7;;;2.7;;
68375;SDS011;55318;52.068;5.188;2023-11-18T12:25:51;5.2;;;2.7;;
68375;SDS011;55318;52.068;5.188;2023-11-18T12:27:48;5.7;;;2.5;;
68375;SDS011;55318;52.068;5.188;2023-11-18T12:29:31;3.4;;;2.4;;
68375;SDS011;55318;52.068;5.188;2023-11-18T12:31:08;5.4;;;2.21;;
68375;SDS011;55318;52.068;5.188;2023-11-18T12:34:52;6.5;;;2.8;;
68375;SDS011;55318;52.068;5.188;2023-11-18T12:37:12;7.2;;;2.9;;
68375;SDS011;55318;52.068;5.188;2023-11-18T12:39:18;4.3;;;2.5;;
68375;SDS011;55318;52.068;5.188;2023-11-18T12:42:04;6.0;;;2.6;;
68375;SDS011;55318;52.068;5.188;2023-11-18T12:43:46;4.5;;;2.4;;
68375;SDS011;55318;52.068;5.188;2023-11-18T12:48:23;4.8;;;2.31;;
68375;SDS011;55318;52.068;5.188;2023-11-18T12:50:06;6.2;;;2.9;;